Terminal Aerodrome Forecast
Issued by NWS Nashville, TN

Home | Current Version | Previous Version | Text Only | Print | Product List | Glossary On
Versions: 1 2 3 4 5 6 7 8 9 10 11 12 13 14 15 16 17 18 19 20 21 22 23 24 25 26 27 28 29 30 31 32 33
000
FTUS44 KOHX 051100
TAFBNA
TAF
KBNA 051126Z 0512/0612 36014G20KT 4SM -SN BR OVC011
      TEMPO 0512/0514 1SM -SN BR OVC006
     FM051500 35012G20KT 5SM -SN BR OVC011
     FM051800 36012G20KT P6SM OVC015
     FM060000 36012KT P6SM BKN035=

USA.gov is the U.S. government's official web portal to all federal, state and local government web resources and services.